Time;durP1;ratioP1;P1;durP2;ratioP2;P2;SDS_P1;SDS_P2;PMS_P1;PMS_P2;Temp;Humidity;BMP_temperature;BMP_pressure;BME280_temperature;BME280_humidity;BME280_pressure;Samples;Min_cycle;Max_cycle;Signal;HPM_P1;HPM_P2
2022/09/20 00:00:48;;;;;;;;;;;;;;;12.03;92.98;102267.47;5115219;28;19911;-34
2022/09/20 00:03:13;;;;;;;;;;;;;;;12.01;93.14;102264.16;5115864;28;19960;-34
2022/09/20 00:05:40;;;;;;;;;;;;;;;11.99;93.43;102254.53;5115026;28;19923;-34
2022/09/20 00:08:07;;;;;;;;;;;;;;;11.97;92.82;102256.63;5114583;28;19916;-34
2022/09/20 00:10:38;;;;;;;;;;;;;;;11.95;93.52;102248.69;5114865;28;19912;-34
2022/09/20 00:13:03;;;;;;;;;;;;;;;11.91;93.04;102252.88;5115304;28;19918;-34
2022/09/20 00:15:29;;;;;;;;;;;;;;;11.91;92.97;102258.28;5115657;28;19911;-34
2022/09/20 00:17:54;;;;;;;;;;;;;;;11.91;93.30;102258.28;5114869;27;19969;-34
2022/09/20 00:20:20;;;;;;;;;;;;;;;11.90;93.61;102259.31;5114613;28;19912;-34
2022/09/20 00:22:48;;;;;;;;;;;;;;;11.90;93.04;102255.75;5115261;28;19980;-34
2022/09/20 00:25:14;;;;;;;;;;;;;;;11.90;93.41;102256.59;5114568;28;19912;-34
2022/09/20 00:27:39;;;;;;;;;;;;;;;11.90;93.07;102262.00;5115610;28;19947;-34
2022/09/20 00:30:05;;;;;;;;;;;;;;;11.90;92.97;102255.75;5114935;28;19919;-34
2022/09/20 00:32:31;;;;;;;;;;;;;;;11.88;93.27;102258.69;5114413;28;19911;-34
2022/09/20 00:35:09;;;;;;;;;;;;;;;11.87;93.23;102267.03;5115204;28;19911;-34
2022/09/20 00:37:36;;;;;;;;;;;;;;;11.85;93.25;102270.75;5115179;28;19961;-34
2022/09/20 00:40:02;;;;;;;;;;;;;;;11.85;92.68;102269.94;5115335;28;19911;-34
2022/09/20 00:42:28;;;;;;;;;;;;;;;11.83;93.10;102274.72;5115181;28;19916;-34
2022/09/20 00:45:02;;;;;;;;;;;;;;;11.81;92.79;102282.22;5115067;28;19923;-34
2022/09/20 00:47:44;;;;;;;;;;;;;;;11.77;92.64;102264.69;5114776;28;19980;-34
2022/09/20 00:50:33;;;;;;;;;;;;;;;11.74;92.66;102268.63;5112795;28;19934;-34
2022/09/20 00:53:08;;;;;;;;;;;;;;;11.72;92.62;102267.16;5114418;27;20342;-34
2022/09/20 00:55:36;;;;;;;;;;;;;;;11.66;92.92;102268.78;5114233;28;19912;-34
2022/09/20 00:58:01;;;;;;;;;;;;;;;11.62;92.59;102274.84;5114107;28;20003;-34
2022/09/20 01:00:27;;;;;;;;;;;;;;;11.57;92.96;102280.88;5114180;28;20003;-34
2022/09/20 01:02:56;;;;;;;;;;;;;;;11.53;92.99;102282.31;5114262;28;19911;-34
2022/09/20 01:05:21;;;;;;;;;;;;;;;11.50;92.96;102283.53;5113852;28;20347;-34
2022/09/20 01:07:47;;;;;;;;;;;;;;;11.49;92.90;102271.03;5113895;28;19912;-34
2022/09/20 01:10:12;;;;;;;;;;;;;;;11.51;92.96;102273.53;5114124;28;20006;-34
2022/09/20 01:12:39;;;;;;;;;;;;;;;11.53;93.14;102271.47;5113906;27;19916;-34
2022/09/20 01:15:06;;;;;;;;;;;;;;;11.54;93.04;102270.44;5114269;28;19915;-34
2022/09/20 01:17:33;;;;;;;;;;;;;;;11.54;93.58;102273.16;5114058;28;19912;-34
2022/09/20 01:20:19;;;;;;;;;;;;;;;11.51;93.85;102270.81;5113251;28;19911;-34
2022/09/20 01:22:51;;;;;;;;;;;;;;;11.50;93.51;102263.75;5113826;28;20363;-34
2022/09/20 01:25:25;;;;;;;;;;;;;;;11.51;93.70;102268.94;5114179;28;19911;-34
2022/09/20 01:27:52;;;;;;;;;;;;;;;11.51;93.63;102266.25;5114623;28;20328;-34
2022/09/20 01:30:19;;;;;;;;;;;;;;;11.54;94.24;102267.72;5113875;28;19918;-35
2022/09/20 01:32:44;;;;;;;;;;;;;;;11.55;93.54;102272.94;5114427;28;19961;-34
2022/09/20 01:35:10;;;;;;;;;;;;;;;11.59;93.55;102268.78;5113005;28;19911;-34
2022/09/20 01:37:35;;;;;;;;;;;;;;;11.60;93.45;102267.75;5113063;28;19918;-34
2022/09/20 01:40:19;;;;;;;;;;;;;;;11.63;93.61;102265.69;5114107;28;20006;-34
2022/09/20 01:42:55;;;;;;;;;;;;;;;11.65;93.61;102263.59;5113621;28;20385;-34
2022/09/20 01:45:27;;;;;;;;;;;;;;;11.66;93.36;102266.09;5114354;28;20002;-34
2022/09/20 01:47:52;;;;;;;;;;;;;;;11.67;93.45;102265.06;5113883;28;19918;-35
2022/09/20 01:50:18;;;;;;;;;;;;;;;11.68;93.65;102272.16;5113676;28;20014;-35
2022/09/20 01:53:09;;;;;;;;;;;;;;;11.69;93.58;102265.69;5114067;28;20312;-35
2022/09/20 01:55:37;;;;;;;;;;;;;;;11.69;93.29;102267.56;5110676;28;19911;-35
2022/09/20 01:58:29;;;;;;;;;;;;;;;11.63;93.50;102257.56;5113674;28;19919;-35
2022/09/20 02:00:54;;;;;;;;;;;;;;;11.68;93.66;102265.91;5031062;28;20397;-35
2022/09/20 02:03:37;;;;;;;;;;;;;;;11.69;93.40;102273.00;5031262;28;19955;-35
2022/09/20 02:06:22;;;;;;;;;;;;;;;11.67;93.37;102265.06;5030850;28;20325;-35
2022/09/20 02:08:59;;;;;;;;;;;;;;;11.67;93.30;102266.94;5031265;28;19964;-35
2022/09/20 02:11:33;;;;;;;;;;;;;;;11.65;93.55;102272.56;5030479;28;19921;-35
2022/09/20 02:14:05;;;;;;;;;;;;;;;11.66;93.37;102270.66;5030953;28;19913;-33
2022/09/20 02:16:36;;;;;;;;;;;;;;;11.64;93.50;102268.19;5030845;28;19920;-33
2022/09/20 02:19:01;;;;;;;;;;;;;;;11.64;93.42;102264.63;5030796;28;19913;-34
2022/09/20 02:21:38;;;;;;;;;;;;;;;11.64;93.52;102264.63;5030471;28;19951;-34
2022/09/20 02:24:09;;;;;;;;;;;;;;;11.63;93.34;102265.69;5031238;28;20239;-34
2022/09/20 02:27:01;;;;;;;;;;;;;;;11.63;93.32;102263.81;5030502;28;19917;-34
2022/09/20 02:29:41;;;;;;;;;;;;;;;11.62;93.60;102262.13;5030420;28;19913;-34
2022/09/20 02:32:18;;;;;;;;;;;;;;;11.62;93.52;102266.72;5033968;28;19987;-34
2022/09/20 02:34:46;;;;;;;;;;;;;;;11.62;93.36;102264.00;5034197;28;19924;-33
2022/09/20 02:37:24;;;;;;;;;;;;;;;11.62;93.27;102253.19;5058268;28;20378;-34
2022/09/20 02:40:15;;;;;;;;;;;;;;;11.64;93.31;102256.50;5116804;28;19912;-34
2022/09/20 02:42:47;;;;;;;;;;;;;;;11.63;93.44;102260.25;5117223;27;19912;-34
2022/09/20 02:45:19;;;;;;;;;;;;;;;11.62;93.52;102250.47;5116911;28;19911;-34
2022/09/20 02:47:44;;;;;;;;;;;;;;;11.59;93.85;102260.66;5116962;28;20006;-34
2022/09/20 02:50:25;;;;;;;;;;;;;;;11.59;93.71;102262.53;5116464;28;20404;-34
2022/09/20 02:53:05;;;;;;;;;;;;;;;11.57;93.50;102259.22;5117614;27;20275;-33
2022/09/20 02:55:39;;;;;;;;;;;;;;;11.56;93.73;102261.06;5116637;28;19911;-33
2022/09/20 02:58:23;;;;;;;;;;;;;;;11.57;93.58;102251.91;5117006;28;19919;-34
2022/09/20 03:00:58;;;;;;;;;;;;;;;11.57;93.44;102262.75;5116967;28;19911;-34
2022/09/20 03:03:23;;;;;;;;;;;;;;;11.56;93.55;102258.34;5116903;27;19912;-34
2022/09/20 03:06:07;;;;;;;;;;;;;;;11.57;93.89;102257.31;5116064;28;19911;-34
2022/09/20 03:08:47;;;;;;;;;;;;;;;11.56;93.63;102258.34;5116728;28;19911;-34
2022/09/20 03:11:22;;;;;;;;;;;;;;;11.58;93.32;102260.88;5116262;28;19937;-34
2022/09/20 03:14:06;;;;;;;;;;;;;;;11.57;93.66;102257.31;5116144;28;19912;-34
2022/09/20 03:16:50;;;;;;;;;;;;;;;11.58;93.51;102252.75;5116528;28;19924;-34
2022/09/20 03:19:28;;;;;;;;;;;;;;;11.58;93.20;102247.31;5116756;28;19919;-34
2022/09/20 03:21:53;;;;;;;;;;;;;;;11.56;93.12;102252.91;5116183;28;19911;-34
2022/09/20 03:24:36;;;;;;;;;;;;;;;11.58;93.24;102253.56;5116301;28;19998;-34
2022/09/20 03:27:12;;;;;;;;;;;;;;;11.57;93.49;102259.22;5116449;28;19921;-34
2022/09/20 03:29:54;;;;;;;;;;;;;;;11.57;93.50;102256.50;5115932;28;20003;-34
2022/09/20 03:32:34;;;;;;;;;;;;;;;11.57;93.25;102254.63;5116584;27;19991;-34
2022/09/20 03:35:02;;;;;;;;;;;;;;;11.57;93.24;102264.63;5116020;28;20283;-34
2022/09/20 03:37:36;;;;;;;;;;;;;;;11.57;93.32;102261.91;5115938;28;20281;-34
2022/09/20 03:40:02;;;;;;;;;;;;;;;11.57;93.30;102268.16;5115511;28;20252;-34
2022/09/20 03:42:28;;;;;;;;;;;;;;;11.58;93.29;102264.41;5115151;28;19912;-34
2022/09/20 03:45:12;;;;;;;;;;;;;;;11.58;93.15;102264.41;5115868;28;20002;-34
2022/09/20 03:47:51;;;;;;;;;;;;;;;11.59;93.35;102267.94;5116146;28;19954;-34
2022/09/20 03:50:19;;;;;;;;;;;;;;;11.59;93.43;102263.38;5115973;28;19911;-34
2022/09/20 03:52:50;;;;;;;;;;;;;;;11.60;93.30;102256.91;5116556;28;19971;-34
2022/09/20 03:55:33;;;;;;;;;;;;;;;11.59;93.38;102255.25;5115886;28;19961;-34
2022/09/20 03:58:26;;;;;;;;;;;;;;;11.58;93.66;102259.00;5115239;28;19919;-34
2022/09/20 04:01:03;;;;;;;;;;;;;;;11.58;94.05;102258.16;5115087;28;20454;-33
2022/09/20 04:03:48;;;;;;;;;;;;;;;11.56;94.18;102255.63;5115853;28;19965;-33
2022/09/20 04:06:32;;;;;;;;;;;;;;;11.56;94.20;102261.06;5115167;28;19912;-34
2022/09/20 04:09:13;;;;;;;;;;;;;;;11.56;94.33;102254.78;5115505;28;19980;-34
2022/09/20 04:11:50;;;;;;;;;;;;;;;11.57;94.12;102256.50;5115763;28;20336;-34
2022/09/20 04:14:28;;;;;;;;;;;;;;;11.57;94.00;102256.50;5115508;28;19950;-34
2022/09/20 04:17:04;;;;;;;;;;;;;;;11.56;94.07;102263.75;5115123;28;19915;-34
2022/09/20 04:19:36;;;;;;;;;;;;;;;11.57;94.04;102251.06;5114959;28;19912;-34
2022/09/20 04:22:02;;;;;;;;;;;;;;;11.57;93.95;102254.63;5115259;27;19911;-34
2022/09/20 04:24:27;;;;;;;;;;;;;;;11.58;94.23;102258.16;5115684;28;19990;-34
2022/09/20 04:27:04;;;;;;;;;;;;;;;11.58;94.07;102259.00;5115164;28;19991;-34
2022/09/20 04:29:29;;;;;;;;;;;;;;;11.58;94.27;102247.31;5114880;28;19973;-34
2022/09/20 04:32:02;;;;;;;;;;;;;;;11.58;94.30;102244.63;5115134;28;20363;-34
2022/09/20 04:37:31;;;;;;;;;;;;;;;11.53;94.35;102256.06;5114850;28;19973;-34
2022/09/20 04:40:09;;;;;;;;;;;;;;;11.55;94.47;102266.69;5114799;28;20317;-35
2022/09/20 04:42:37;;;;;;;;;;;;;;;11.56;94.33;102266.47;5115441;28;19911;-33
2022/09/20 04:45:06;;;;;;;;;;;;;;;11.56;94.61;102261.06;5114515;28;19918;-33
2022/09/20 04:47:34;;;;;;;;;;;;;;;11.55;94.45;102264.81;5115310;28;19942;-34
2022/09/20 04:50:27;;;;;;;;;;;;;;;11.54;94.33;102265.84;5114731;28;19922;-34
2022/09/20 04:53:01;;;;;;;;;;;;;;;11.54;94.42;102267.72;5114501;28;19919;-34
2022/09/20 04:55:43;;;;;;;;;;;;;;;11.52;94.37;102258.97;5114610;28;20006;-34
2022/09/20 04:58:27;;;;;;;;;;;;;;;11.50;94.38;102267.28;5115026;28;19915;-34
2022/09/20 05:01:15;;;;;;;;;;;;;;;11.46;94.56;102271.44;5115335;28;19911;-34
2022/09/20 05:03:40;;;;;;;;;;;;;;;11.41;94.43;102273.91;5114449;28;20452;-34
2022/09/20 05:06:14;;;;;;;;;;;;;;;11.36;94.46;102281.81;5114940;28;19912;-34
2022/09/20 05:08:45;;;;;;;;;;;;;;;11.32;94.55;102269.69;5114443;28;20291;-34
2022/09/20 05:11:16;;;;;;;;;;;;;;;11.27;94.67;102278.47;5114496;28;19915;-34
2022/09/20 05:13:47;;;;;;;;;;;;;;;11.24;94.48;102278.00;5114905;28;19912;-33
2022/09/20 05:16:16;;;;;;;;;;;;;;;11.21;94.49;102289.22;5114856;28;19911;-34
2022/09/20 05:19:00;;;;;;;;;;;;;;;11.18;94.69;102284.25;5114657;28;19918;-34
2022/09/20 05:21:43;;;;;;;;;;;;;;;11.13;94.80;102287.53;5113870;28;19912;-34
2022/09/20 05:24:14;;;;;;;;;;;;;;;11.08;94.79;102290.84;5114284;28;19912;-34
2022/09/20 05:27:06;;;;;;;;;;;;;;;11.06;94.75;102289.34;5114372;28;20023;-34
2022/09/20 05:29:46;;;;;;;;;;;;;;;11.02;94.76;102294.31;5114787;28;19911;-34
2022/09/20 05:32:23;;;;;;;;;;;;;;;11.00;94.83;102299.13;5114511;28;20271;-34
2022/09/20 05:34:57;;;;;;;;;;;;;;;10.99;95.05;102297.44;5114148;28;19912;-34
2022/09/20 05:37:38;;;;;;;;;;;;;;;11.01;95.08;102306.19;5114679;28;20335;-34
2022/09/20 05:40:10;;;;;;;;;;;;;;;11.03;95.18;102301.44;5113496;28;19995;-35
2022/09/20 05:42:55;;;;;;;;;;;;;;;11.08;94.92;102312.50;5113827;28;19920;-34
2022/09/20 05:45:22;;;;;;;;;;;;;;;11.12;95.34;102312.09;5114259;28;19912;-34
2022/09/20 05:48:01;;;;;;;;;;;;;;;11.17;95.31;102309.63;5114146;28;19915;-35
2022/09/20 05:51:01;;;;;;;;;;;;;;;11.22;95.45;102316.09;5113758;28;20044;-35
2022/09/20 05:53:45;;;;;;;;;;;;;;;11.27;95.29;102318.22;5030865;28;19921;-35
2022/09/20 05:56:10;;;;;;;;;;;;;;;11.33;95.42;102320.16;5031115;28;19917;-35
2022/09/20 05:58:38;;;;;;;;;;;;;;;11.41;95.30;102317.25;5031092;28;20008;-35
2022/09/20 06:01:12;;;;;;;;;;;;;;;11.45;95.33;102317.69;5030693;28;19928;-35
2022/09/20 06:03:47;;;;;;;;;;;;;;;11.47;95.42;102315.63;5031362;28;19920;-34
2022/09/20 06:06:20;;;;;;;;;;;;;;;11.52;95.72;102324.81;5033129;28;20436;-34
2022/09/20 06:09:14;;;;;;;;;;;;;;;11.53;95.77;102329.19;5034812;28;19944;-35
2022/09/20 06:11:47;;;;;;;;;;;;;;;11.52;95.88;102319.41;5025819;28;19948;-34
2022/09/20 06:14:18;;;;;;;;;;;;;;;11.53;95.70;102328.38;5035101;28;19917;-35
2022/09/20 06:16:52;;;;;;;;;;;;;;;11.54;96.78;102330.03;5034491;28;20024;-35
2022/09/20 06:19:25;;;;;;;;;;;;;;;11.54;96.34;102336.28;5034449;28;20274;-35
2022/09/20 06:21:53;;;;;;;;;;;;;;;11.55;96.26;102340.66;5035093;28;20388;-35
2022/09/20 06:24:27;;;;;;;;;;;;;;;11.57;95.98;102335.06;5034320;28;19913;-35
2022/09/20 06:26:54;;;;;;;;;;;;;;;11.57;95.90;102338.59;5057663;28;20256;-35
2022/09/20 06:29:23;;;;;;;;;;;;;;;11.60;96.00;102337.34;5117466;28;19912;-35
2022/09/20 06:31:48;;;;;;;;;;;;;;;11.62;95.89;102337.16;5117439;28;19918;-35
2022/09/20 06:34:14;;;;;;;;;;;;;;;11.64;96.58;102333.22;5117276;28;19916;-35
2022/09/20 06:42:37;;;;;;;;;;;;;;;11.73;96.15;102331.16;5034842;28;19966;-34
2022/09/20 06:45:03;;;;;;;;;;;;;;;11.78;96.00;102328.69;5034465;28;20269;-35
2022/09/20 06:47:28;;;;;;;;;;;;;;;11.81;96.35;102329.13;5034157;28;19956;-35
2022/09/20 06:49:54;;;;;;;;;;;;;;;11.85;96.06;102332.28;5034292;28;19919;-35
2022/09/20 06:52:20;;;;;;;;;;;;;;;11.89;96.57;102330.00;5034519;28;19936;-35
2022/09/20 06:54:47;;;;;;;;;;;;;;;11.91;96.00;102330.63;5033798;28;19921;-35
2022/09/20 06:57:15;;;;;;;;;;;;;;;11.94;96.67;102332.94;5034272;28;20004;-35
2022/09/20 06:59:40;;;;;;;;;;;;;;;11.94;96.30;102332.94;5034158;28;19924;-35
2022/09/20 07:02:07;;;;;;;;;;;;;;;11.94;96.51;102335.63;5033982;28;19913;-35
2022/09/20 07:04:33;;;;;;;;;;;;;;;11.96;96.43;102334.41;5033806;28;19913;-35
2022/09/20 07:06:59;;;;;;;;;;;;;;;12.00;96.74;102335.66;5017332;28;19928;-35
2022/09/20 07:09:24;;;;;;;;;;;;;;;12.08;96.99;102340.91;5033657;28;20022;-35
2022/09/20 07:11:49;;;;;;;;;;;;;;;12.14;96.79;102341.94;5033428;28;20436;-35
2022/09/20 07:14:15;;;;;;;;;;;;;;;12.21;96.95;102336.56;5033763;28;20036;-35
2022/09/20 07:16:40;;;;;;;;;;;;;;;12.26;96.65;102342.19;5033580;28;19908;-35
2022/09/20 07:19:06;;;;;;;;;;;;;;;12.33;96.69;102337.59;5069245;28;19913;-35
2022/09/20 07:21:31;;;;;;;;;;;;;;;12.37;96.65;102336.16;5116439;28;19912;-35
2022/09/20 07:23:56;;;;;;;;;;;;;;;12.43;96.42;102338.03;5115775;28;20454;-35
2022/09/20 07:26:27;;;;;;;;;;;;;;;12.52;96.48;102338.69;5116177;28;19912;-35
2022/09/20 07:28:52;;;;;;;;;;;;;;;12.55;96.25;102347.25;5116134;28;19911;-35
2022/09/20 07:31:19;;;;;;;;;;;;;;;12.62;96.31;102345.38;5115936;28;20018;-35
2022/09/20 07:33:44;;;;;;;;;;;;;;;12.65;95.86;102346.84;5116075;27;19919;-35
2022/09/20 07:36:11;;;;;;;;;;;;;;;12.66;95.56;102359.34;5115873;28;19911;-35
2022/09/20 07:38:36;;;;;;;;;;;;;;;12.71;95.19;102350.59;5116371;28;19919;-35
2022/09/20 07:41:01;;;;;;;;;;;;;;;12.73;95.21;102356.63;5116294;28;19911;-35
2022/09/20 07:43:27;;;;;;;;;;;;;;;12.72;95.16;102352.25;5115791;28;20352;-35
2022/09/20 07:45:53;;;;;;;;;;;;;;;12.75;95.11;102352.69;5115771;28;20386;-35
2022/09/20 07:48:19;;;;;;;;;;;;;;;12.81;94.97;102356.44;5116789;28;20245;-35
2022/09/20 07:50:52;;;;;;;;;;;;;;;12.86;95.01;102359.34;5116031;28;19919;-35
2022/09/20 07:53:17;;;;;;;;;;;;;;;12.95;94.89;102362.72;5116141;28;19911;-35
2022/09/20 07:55:42;;;;;;;;;;;;;;;13.01;94.44;102362.69;5115626;28;19922;-35
2022/09/20 07:58:08;;;;;;;;;;;;;;;13.07;94.33;102364.56;5116088;28;19912;-35
2022/09/20 08:00:33;;;;;;;;;;;;;;;13.12;94.25;102356.59;5115258;28;20283;-35
2022/09/20 08:02:59;;;;;;;;;;;;;;;13.19;94.13;102366.66;5115072;28;19912;-35
2022/09/20 08:05:24;;;;;;;;;;;;;;;13.29;94.23;102372.50;5115346;28;19911;-35
2022/09/20 08:07:49;;;;;;;;;;;;;;;13.34;93.82;102370.00;5115306;28;20291;-35
2022/09/20 08:10:15;;;;;;;;;;;;;;;13.34;90.63;102368.09;5115396;28;19957;-35
2022/09/20 08:12:40;;;;;;;;;;;;;;;13.39;91.98;102364.75;5116380;28;19916;-35
2022/09/20 08:15:05;;;;;;;;;;;;;;;13.47;91.77;102369.09;5114871;28;19927;-35
2022/09/20 08:17:31;;;;;;;;;;;;;;;13.53;90.87;102360.13;5115426;28;19912;-35
2022/09/20 08:19:56;;;;;;;;;;;;;;;13.58;91.62;102352.16;5115497;28;19912;-35
2022/09/20 08:22:22;;;;;;;;;;;;;;;13.67;91.33;102356.31;5115279;28;19958;-35
2022/09/20 08:24:47;;;;;;;;;;;;;;;13.75;91.19;102360.66;5113825;28;20010;-35
2022/09/20 08:27:12;;;;;;;;;;;;;;;13.84;90.72;102362.09;5114858;28;19912;-35
2022/09/20 08:29:37;;;;;;;;;;;;;;;13.90;89.93;102367.50;5114610;28;19984;-38
2022/09/20 08:32:03;;;;;;;;;;;;;;;13.98;88.41;102368.31;5114903;28;20002;-35
2022/09/20 08:34:28;;;;;;;;;;;;;;;14.05;89.37;102364.50;5114760;28;20366;-35
2022/09/20 08:36:55;;;;;;;;;;;;;;;14.12;89.42;102372.63;5113036;28;19965;-35
2022/09/20 08:39:20;;;;;;;;;;;;;;;14.22;89.28;102375.72;5114637;28;20010;-35
2022/09/20 08:41:55;;;;;;;;;;;;;;;14.32;89.13;102380.69;5114609;28;20018;-35
2022/09/20 08:44:31;;;;;;;;;;;;;;;14.40;87.63;102380.44;5115382;28;19957;-35
2022/09/20 08:47:01;;;;;;;;;;;;;;;14.51;87.70;102387.91;5114280;27;20351;-35
2022/09/20 08:49:27;;;;;;;;;;;;;;;14.55;86.76;102385.59;5114222;28;19911;-35
2022/09/20 08:51:53;;;;;;;;;;;;;;;14.51;84.00;102385.19;5112864;28;19961;-35
2022/09/20 08:54:19;;;;;;;;;;;;;;;14.55;84.64;102391.88;5114453;28;19918;-35
2022/09/20 08:56:45;;;;;;;;;;;;;;;14.49;81.77;102392.72;5114679;28;19911;-35
2022/09/20 08:59:14;;;;;;;;;;;;;;;14.59;82.93;102395.84;5114275;28;19912;-35
2022/09/20 09:01:40;;;;;;;;;;;;;;;14.76;83.92;102398.00;5114110;28;20370;-35
2022/09/20 09:04:20;;;;;;;;;;;;;;;14.82;76.23;102375.31;5114500;28;20014;-35
2022/09/20 09:06:46;;;;;;;;;;;;;;;15.03;77.29;102388.56;5114536;28;19921;-35
2022/09/20 09:09:16;;;;;;;;;;;;;;;15.11;80.87;102388.28;5114234;28;19947;-35
2022/09/20 09:11:42;;;;;;;;;;;;;;;15.15;79.57;102396.84;5114226;28;19958;-35
2022/09/20 09:16:56;;;;;;;;;;;;;;;15.06;76.20;102390.00;5114350;28;19958;-35
2022/09/20 09:19:51;;;;;;;;;;;;;;;15.00;76.58;102389.00;5114431;28;19912;-35
2022/09/20 09:22:18;;;;;;;;;;;;;;;14.93;77.65;102388.22;5096464;28;19966;-35
2022/09/20 09:24:43;;;;;;;;;;;;;;;14.95;79.94;102391.56;5113719;28;19912;-35
2022/09/20 09:27:15;;;;;;;;;;;;;;;14.96;80.37;102393.22;5114639;28;19965;-36
2022/09/20 09:29:50;;;;;;;;;;;;;;;14.97;80.52;102394.88;5114045;28;19912;-35
2022/09/20 09:32:36;;;;;;;;;;;;;;;14.94;77.49;102408.97;5114760;28;20316;-35
2022/09/20 09:35:20;;;;;;;;;;;;;;;14.91;79.33;102393.06;5113303;28;20327;-35
2022/09/20 09:37:59;;;;;;;;;;;;;;;14.92;80.70;102397.44;5114486;28;19912;-35
2022/09/20 09:40:25;;;;;;;;;;;;;;;14.89;75.01;102389.75;5113158;28;19915;-35
2022/09/20 09:42:50;;;;;;;;;;;;;;;14.92;77.53;102397.44;5114259;28;19911;-35
2022/09/20 09:45:26;;;;;;;;;;;;;;;14.92;78.14;102402.91;5114407;28;19912;-35
2022/09/20 09:47:52;;;;;;;;;;;;;;;14.89;76.84;102408.81;5114204;28;19912;-35
2022/09/20 09:50:25;;;;;;;;;;;;;;;14.86;77.73;102409.25;5114121;28;19960;-36
2022/09/20 09:53:01;;;;;;;;;;;;;;;14.79;76.13;102409.28;5114875;28;19912;-35
2022/09/20 09:55:34;;;;;;;;;;;;;;;14.76;77.49;102406.19;5113735;28;19919;-35
2022/09/20 09:58:05;;;;;;;;;;;;;;;14.73;76.82;102417.50;5114085;28;19912;-35
2022/09/20 10:00:32;;;;;;;;;;;;;;;14.73;76.75;102417.50;5114198;28;19911;-35
2022/09/20 10:03:21;;;;;;;;;;;;;;;14.75;75.87;102416.22;5114444;28;20272;-35
2022/09/20 10:05:55;;;;;;;;;;;;;;;14.79;76.84;102413.91;5114278;28;19911;-36
2022/09/20 10:08:24;;;;;;;;;;;;;;;14.86;76.61;102414.69;5113628;28;19912;-35
2022/09/20 10:10:59;;;;;;;;;;;;;;;14.87;75.08;102414.44;5113748;28;19968;-35
2022/09/20 10:13:27;;;;;;;;;;;;;;;14.90;75.76;102421.34;5114114;28;19911;-35
2022/09/20 10:16:16;;;;;;;;;;;;;;;14.94;77.04;102406.25;5113582;28;20260;-35
2022/09/20 10:18:41;;;;;;;;;;;;;;;15.03;77.13;102402.19;5113411;28;19911;-35
2022/09/20 10:21:14;;;;;;;;;;;;;;;15.18;77.76;102405.41;5113333;28;19918;-35
2022/09/20 10:23:56;;;;;;;;;;;;;;;15.35;75.20;102410.28;5113761;28;20011;-36
2022/09/20 10:26:37;;;;;;;;;;;;;;;15.35;71.47;102407.53;5114005;28;19911;-35
2022/09/20 10:29:02;;;;;;;;;;;;;;;15.40;73.93;102402.25;5113858;28;19912;-35
2022/09/20 10:31:37;;;;;;;;;;;;;;;15.40;70.33;102404.97;5113340;28;19935;-35
2022/09/20 10:34:24;;;;;;;;;;;;;;;15.54;71.72;102392.88;5113574;28;19916;-35
2022/09/20 10:36:49;;;;;;;;;;;;;;;15.78;74.23;102403.97;5113457;28;19912;-35
2022/09/20 10:39:18;;;;;;;;;;;;;;;15.92;70.86;102397.31;5113843;28;19918;-35
2022/09/20 10:45:04;;;;;;;;;;;;;;;16.02;70.96;102403.03;5113592;28;19918;-35
2022/09/20 10:47:33;;;;;;;;;;;;;;;16.09;73.92;102403.78;5095310;28;19912;-35
2022/09/20 10:50:17;;;;;;;;;;;;;;;16.14;71.58;102408.53;5114018;28;19955;-35
2022/09/20 10:52:50;;;;;;;;;;;;;;;16.18;70.61;102410.59;5116124;28;19924;-35
2022/09/20 10:55:29;;;;;;;;;;;;;;;16.05;66.56;102408.03;5117558;28;19997;-35
2022/09/20 10:58:06;;;;;;;;;;;;;;;16.17;71.33;102408.94;5117428;27;20008;-35
2022/09/20 11:00:34;;;;;;;;;;;;;;;16.28;71.08;102406.47;5116692;28;19912;-35
2022/09/20 11:03:17;;;;;;;;;;;;;;;16.20;67.20;102407.63;5116773;28;19912;-35
2022/09/20 11:06:16;;;;;;;;;;;;;;;16.17;69.51;102408.94;5116760;28;19912;-35
2022/09/20 11:08:41;;;;;;;;;;;;;;;16.19;67.78;102409.50;5033726;28;19920;-35
2022/09/20 11:11:15;;;;;;;;;;;;;;;16.25;68.92;102413.25;5033579;28;19917;-35
2022/09/20 11:13:42;;;;;;;;;;;;;;;16.35;68.39;102412.69;5034235;28;20000;-35
2022/09/20 11:16:08;;;;;;;;;;;;;;;16.43;68.28;102410.44;5033905;28;20400;-35
2022/09/20 11:18:40;;;;;;;;;;;;;;;16.42;67.04;102414.25;5033837;28;20431;-35
2022/09/20 11:21:20;;;;;;;;;;;;;;;16.45;69.03;102413.78;5033749;28;19963;-35
2022/09/20 11:23:51;;;;;;;;;;;;;;;16.30;65.11;102417.97;5034154;28;19913;-35
2022/09/20 11:26:30;;;;;;;;;;;;;;;16.21;64.92;102423.78;5033470;28;20375;-35
2022/09/20 11:29:00;;;;;;;;;;;;;;;16.23;68.43;102421.66;5034181;28;19919;-35
2022/09/20 11:31:29;;;;;;;;;;;;;;;16.16;64.90;102428.28;5033855;28;20016;-35
2022/09/20 11:34:00;;;;;;;;;;;;;;;16.21;67.64;102433.88;5034163;28;19972;-35
2022/09/20 11:36:38;;;;;;;;;;;;;;;16.21;68.65;102434.69;5033738;28;19920;-35
2022/09/20 11:39:09;;;;;;;;;;;;;;;16.18;67.59;102439.78;5033830;28;19917;-35
2022/09/20 11:41:34;;;;;;;;;;;;;;;16.13;69.48;102440.47;5033148;28;19920;-35
2022/09/20 11:44:05;;;;;;;;;;;;;;;16.03;70.03;102436.63;5066922;28;19912;-35
2022/09/20 11:46:35;;;;;;;;;;;;;;;15.84;67.74;102438.50;5115819;28;19912;-35
2022/09/20 11:49:00;;;;;;;;;;;;;;;15.68;69.11;102439.97;5115994;28;19961;-35
2022/09/20 11:51:37;;;;;;;;;;;;;;;15.61;70.61;102448.16;5116326;28;19947;-35
2022/09/20 11:54:13;;;;;;;;;;;;;;;15.52;70.29;102444.09;5116401;28;20240;-35
2022/09/20 11:56:39;;;;;;;;;;;;;;;15.41;69.50;102452.97;5116048;28;19912;-35
2022/09/20 11:59:06;;;;;;;;;;;;;;;15.27;70.15;102441.34;5115750;28;19961;-35
2022/09/20 12:01:39;;;;;;;;;;;;;;;15.24;70.72;102443.72;5116343;28;19950;-42
2022/09/20 12:04:17;;;;;;;;;;;;;;;15.22;71.18;102446.66;5114684;28;20367;-35
2022/09/20 12:06:42;;;;;;;;;;;;;;;15.27;71.83;102445.97;5115954;28;19912;-35
2022/09/20 12:09:25;;;;;;;;;;;;;;;15.31;71.96;102449.94;5116314;28;19918;-35
2022/09/20 12:11:54;;;;;;;;;;;;;;;15.37;70.82;102443.56;5115591;28;20375;-35
2022/09/20 12:14:23;;;;;;;;;;;;;;;15.47;71.01;102438.47;5115741;28;20002;-35
2022/09/20 12:16:49;;;;;;;;;;;;;;;15.53;69.74;102437.56;5115961;28;20267;-35
2022/09/20 12:19:21;;;;;;;;;;;;;;;15.58;70.46;102445.91;5115836;28;20006;-35
2022/09/20 12:21:58;;;;;;;;;;;;;;;15.69;70.91;102438.88;5115222;28;19912;-35
2022/09/20 12:24:34;;;;;;;;;;;;;;;15.77;70.18;102432.31;5114842;28;20019;-35
2022/09/20 12:27:18;;;;;;;;;;;;;;;15.83;69.86;102428.66;5115429;28;20006;-35
2022/09/20 12:29:46;;;;;;;;;;;;;;;15.88;70.85;102432.38;5115050;28;19916;-35
2022/09/20 12:32:32;;;;;;;;;;;;;;;15.92;69.17;102427.31;5115823;28;19912;-35
2022/09/20 12:34:57;;;;;;;;;;;;;;;16.00;67.40;102426.16;5114930;28;19912;-35
2022/09/20 12:37:24;;;;;;;;;;;;;;;16.27;68.85;102424.75;5115332;28;19922;-35
2022/09/20 12:39:54;;;;;;;;;;;;;;;16.54;66.87;102417.00;5114944;28;20288;-35
2022/09/20 12:42:30;;;;;;;;;;;;;;;16.77;65.98;102420.91;5115166;28;19957;-35
2022/09/20 12:45:15;;;;;;;;;;;;;;;16.92;64.19;102416.66;5115291;28;19918;-35
2022/09/20 12:47:49;;;;;;;;;;;;;;;17.04;62.25;102408.50;5115059;28;19954;-35
2022/09/20 12:53:04;;;;;;;;;;;;;;;17.21;65.48;102406.69;5115315;28;19972;-35
2022/09/20 12:55:29;;;;;;;;;;;;;;;17.39;63.89;102413.97;5114674;28;19911;-35
2022/09/20 12:58:16;;;;;;;;;;;;;;;17.57;64.30;102403.94;5115468;28;19927;-35
2022/09/20 13:00:57;;;;;;;;;;;;;;;17.69;64.58;102400.13;5114475;28;19912;-35
2022/09/20 13:03:27;;;;;;;;;;;;;;;17.80;64.29;102400.38;5114579;28;19965;-35
2022/09/20 13:06:09;;;;;;;;;;;;;;;17.93;65.55;102403.66;5115283;28;19918;-35
2022/09/20 13:08:38;;;;;;;;;;;;;;;17.82;56.87;102398.25;5114797;28;19911;-35
2022/09/20 13:11:16;;;;;;;;;;;;;;;17.71;60.70;102395.25;5114466;28;19920;-35
2022/09/20 13:13:47;;;;;;;;;;;;;;;17.74;62.16;102400.25;5114941;28;19958;-35
2022/09/20 13:16:21;;;;;;;;;;;;;;;17.55;61.34;102398.72;5114210;28;19912;-35
2022/09/20 13:18:50;;;;;;;;;;;;;;;17.38;61.65;102400.53;5114581;28;20263;-35